Hovedside
METAR-TAF:

METAR-TAF

Lufthavner :

Harbin Taiping internasjonale lufthavn

Harbin, Kina

breddegrad: 45-45N, lengdegrad: 126-46E, høyde over havet: 143 m

Gjeldene værobservasjon

Denne rapporten ble laget for 11 minutter siden, klokken 17:00 UTC
Vind 4 kt fra Sør-sørøst
Temperatur 25°C
Luftfuktighet 89%
Trykk 1006 hPa
Sikt: 7000 m

METAR: ZYHB 231700Z 16002MPS 7000 NSC 25/23 Q1006 NOSIG

Tid: 01:11 (17:11 UTC)

Varsel

Denne rapporten ble laget for 8 timer og 10 minutter siden, klokken 09:01 UTC
Varsel gyldig fra 23. klokken 12 UTC til 24. klokken 12 UTC
Vind 8 kt fra Sør-sørvest
Sikt: 6000 m
Spredte skyer i en høyde av 3300 ft

TAF: ZYHB 230901Z 2312/2412 21004MPS 6000 SCT033 TX31/2406Z TN23/2321Z

Værobservasjoner og værvarsel for over 4000 flyplasser (METAR- og TAF-rapporter).

Tilgjengelige stasjoner er representert av de røde og gule prikkene på kartet.

Hold musepekeren over prikken for å se navnet på stasjonen.

Klikk så for å se værobservasjoner og -varsler.

For å forandre kartet kan du klikke på den grønne knappen med svart kryss for å zoome inn, på den grønne knappen med strek for å zoome ut, eller på de grønne pilene for å se tilstøtende kart.


METAR-TAF: